Time;durP1;ratioP1;P1;durP2;ratioP2;P2;SDS_P1;SDS_P2;PMS_P1;PMS_P2;Temp;Humidity;BMP_temperature;BMP_pressure;BME280_temperature;BME280_humidity;BME280_pressure;Samples;Min_cycle;Max_cycle;Signal;HPM_P1;HPM_P2
2023/06/27 00:01:43;;;;;;;7.30;3.15;;;;;;;;;;5043165;28;20346;-70
2023/06/27 00:04:10;;;;;;;6.55;3.28;;;;;;;;;;5048252;28;20090;-70
2023/06/27 00:06:42;;;;;;;6.50;3.10;;;;;;;;;;5041880;28;20131;-70
2023/06/27 00:09:09;;;;;;;10.38;3.45;;;;;;;;;;5044837;28;20190;-70
2023/06/27 00:11:36;;;;;;;5.88;3.00;;;;;;;;;;5033455;28;20414;-70
2023/06/27 00:14:05;;;;;;;7.20;3.20;;;;;;;;;;5040323;28;20044;-70
2023/06/27 00:16:32;;;;;;;8.23;3.45;;;;;;;;;;5053546;28;20095;-71
2023/06/27 00:19:03;;;;;;;7.57;3.38;;;;;;;;;;5054342;28;20464;-71
2023/06/27 00:21:30;;;;;;;6.85;3.35;;;;;;;;;;5054229;28;20049;-71
2023/06/27 00:23:56;;;;;;;9.70;3.65;;;;;;;;;;5036193;28;20049;-71
2023/06/27 00:26:23;;;;;;;8.07;3.60;;;;;;;;;;5051458;28;20029;-71
2023/06/27 00:28:49;;;;;;;8.25;3.92;;;;;;;;;;5053246;28;20400;-71
2023/06/27 00:31:15;;;;;;;7.68;3.55;;;;;;;;;;5054053;28;20045;-72
2023/06/27 00:33:41;;;;;;;7.95;3.45;;;;;;;;;;5054025;28;20451;-72
2023/06/27 00:36:07;;;;;;;8.40;3.50;;;;;;;;;;5052750;28;20072;-71
2023/06/27 00:38:34;;;;;;;7.68;3.70;;;;;;;;;;5053783;28;20048;-72
2023/06/27 00:41:00;;;;;;;9.27;3.53;;;;;;;;;;5049598;28;20051;-71
2023/06/27 00:43:29;;;;;;;9.93;3.53;;;;;;;;;;5043921;28;20362;-71
2023/06/27 00:45:56;;;;;;;8.23;3.60;;;;;;;;;;5047260;28;20198;-71
2023/06/27 00:48:22;;;;;;;9.30;3.70;;;;;;;;;;5034910;28;20406;-71
2023/06/27 00:50:49;;;;;;;6.13;3.55;;;;;;;;;;5049341;28;20132;-71
2023/06/27 00:53:16;;;;;;;8.80;3.67;;;;;;;;;;5035568;28;20033;-70
2023/06/27 00:55:42;;;;;;;7.10;3.65;;;;;;;;;;5042360;28;20060;-70
2023/06/27 00:58:11;;;;;;;9.73;4.03;;;;;;;;;;5035712;28;20083;-70
2023/06/27 01:00:37;;;;;;;8.07;4.10;;;;;;;;;;5053467;28;20406;-71
2023/06/27 01:03:04;;;;;;;8.52;3.70;;;;;;;;;;5050346;28;20040;-70
2023/06/27 01:05:30;;;;;;;8.68;3.78;;;;;;;;;;5033603;28;20056;-71
2023/06/27 01:08:00;;;;;;;8.95;3.75;;;;;;;;;;5036014;28;20415;-71
2023/06/27 01:10:38;;;;;;;10.63;3.65;;;;;;;;;;5051108;28;20139;-72
2023/06/27 01:13:09;;;;;;;6.93;3.55;;;;;;;;;;5053221;28;20041;-71
2023/06/27 01:15:36;;;;;;;7.15;3.40;;;;;;;;;;5035101;28;20052;-70
2023/06/27 01:18:02;;;;;;;9.68;4.00;;;;;;;;;;5052754;28;20128;-71
2023/06/27 01:20:29;;;;;;;7.90;3.88;;;;;;;;;;5035831;28;20041;-70
2023/06/27 01:23:18;;;;;;;7.55;3.42;;;;;;;;;;5052349;28;20049;-71
2023/06/27 01:25:44;;;;;;;6.72;3.70;;;;;;;;;;5015330;28;20053;-70
2023/06/27 01:28:13;;;;;;;7.43;3.65;;;;;;;;;;5036136;28;20041;-70
2023/06/27 01:30:40;;;;;;;5.63;3.58;;;;;;;;;;5035224;28;20037;-70
2023/06/27 01:33:30;;;;;;;9.43;3.72;;;;;;;;;;5051456;28;20042;-70
2023/06/27 01:35:56;;;;;;;8.57;3.70;;;;;;;;;;5015750;28;20136;-70
2023/06/27 01:38:29;;;;;;;6.60;3.67;;;;;;;;;;5033239;28;20128;-70
2023/06/27 01:40:58;;;;;;;6.90;3.92;;;;;;;;;;5034074;28;20038;-70
2023/06/27 01:43:26;;;;;;;6.85;3.60;;;;;;;;;;5050547;28;20137;-70
2023/06/27 01:45:52;;;;;;;9.80;3.90;;;;;;;;;;5050888;28;20120;-71
2023/06/27 01:48:20;;;;;;;7.50;3.17;;;;;;;;;;5050987;28;20044;-70
2023/06/27 01:50:46;;;;;;;8.82;3.92;;;;;;;;;;5040447;28;20404;-71
2023/06/27 01:53:12;;;;;;;10.05;3.92;;;;;;;;;;5039281;28;20124;-71
2023/06/27 01:55:38;;;;;;;7.68;3.40;;;;;;;;;;5051957;28;20142;-71
2023/06/27 01:58:05;;;;;;;7.22;3.47;;;;;;;;;;5052287;28;20478;-70
2023/06/27 02:00:31;;;;;;;8.00;3.60;;;;;;;;;;5049111;28;20051;-71
2023/06/27 02:02:57;;;;;;;6.97;3.83;;;;;;;;;;5014869;28;20052;-71
2023/06/27 02:05:23;;;;;;;9.23;3.60;;;;;;;;;;5051651;28;20495;-71
2023/06/27 02:07:49;;;;;;;8.13;3.40;;;;;;;;;;5052230;28;20405;-71
2023/06/27 02:10:15;;;;;;;5.22;3.42;;;;;;;;;;5050040;28;20159;-71
2023/06/27 02:12:42;;;;;;;6.15;3.20;;;;;;;;;;5052127;28;20049;-71
2023/06/27 02:15:08;;;;;;;6.45;3.45;;;;;;;;;;5050531;28;20060;-71
2023/06/27 02:17:34;;;;;;;7.88;3.75;;;;;;;;;;5038782;28;20508;-72
2023/06/27 02:20:00;;;;;;;6.82;3.25;;;;;;;;;;5031899;28;20037;-71
2023/06/27 02:22:27;;;;;;;8.45;3.92;;;;;;;;;;5042442;28;20040;-71
2023/06/27 02:24:53;;;;;;;7.90;3.70;;;;;;;;;;5043469;28;20053;-72
2023/06/27 02:27:19;;;;;;;7.93;3.50;;;;;;;;;;5052295;28;20041;-71
2023/06/27 02:29:45;;;;;;;5.47;3.60;;;;;;;;;;5035685;28;20045;-71
2023/06/27 02:32:11;;;;;;;7.85;3.75;;;;;;;;;;5021451;28;20045;-71
2023/06/27 02:34:37;;;;;;;7.90;3.53;;;;;;;;;;5038587;28;20033;-71
2023/06/27 02:37:03;;;;;;;7.32;3.47;;;;;;;;;;5039189;28;20215;-71
2023/06/27 02:39:30;;;;;;;6.63;3.58;;;;;;;;;;5038405;28;20046;-71
2023/06/27 02:41:56;;;;;;;7.47;3.42;;;;;;;;;;5054071;28;20045;-71
2023/06/27 02:44:22;;;;;;;6.72;3.80;;;;;;;;;;5058821;28;20041;-71
2023/06/27 02:46:48;;;;;;;6.68;3.33;;;;;;;;;;5065239;28;20040;-71
2023/06/27 02:49:14;;;;;;;7.07;3.50;;;;;;;;;;5063443;28;20512;-71
2023/06/27 02:51:40;;;;;;;6.18;3.38;;;;;;;;;;5058636;28;20051;-71
2023/06/27 02:54:07;;;;;;;7.90;3.63;;;;;;;;;;5020370;28;20046;-72
2023/06/27 02:56:33;;;;;;;8.02;3.55;;;;;;;;;;5050534;28;20048;-72
2023/06/27 02:58:59;;;;;;;6.53;3.50;;;;;;;;;;5057881;28;20053;-71
2023/06/27 03:01:25;;;;;;;7.40;3.45;;;;;;;;;;5056741;28;20103;-71
2023/06/27 03:03:51;;;;;;;6.60;3.83;;;;;;;;;;5044487;28;20405;-72
2023/06/27 03:06:19;;;;;;;10.02;3.40;;;;;;;;;;5049286;28;20072;-72
2023/06/27 03:08:45;;;;;;;7.97;3.35;;;;;;;;;;5038939;28;20115;-71
2023/06/27 03:11:11;;;;;;;6.65;3.40;;;;;;;;;;5052644;28;20063;-71
2023/06/27 03:13:37;;;;;;;9.35;3.28;;;;;;;;;;5038625;28;20041;-72
2023/06/27 03:16:03;;;;;;;7.95;3.83;;;;;;;;;;5038620;28;20060;-72
2023/06/27 03:18:30;;;;;;;8.30;3.25;;;;;;;;;;5039479;28;20041;-71
2023/06/27 03:20:57;;;;;;;8.93;3.80;;;;;;;;;;5038107;28;20042;-71
2023/06/27 03:23:23;;;;;;;9.27;3.55;;;;;;;;;;5045695;28;20102;-71
2023/06/27 03:25:49;;;;;;;10.27;3.92;;;;;;;;;;5042752;28;20120;-71
2023/06/27 03:28:15;;;;;;;6.57;3.40;;;;;;;;;;5040432;28;20532;-71
2023/06/27 03:30:44;;;;;;;8.95;3.78;;;;;;;;;;5058495;28;20117;-72
2023/06/27 03:33:10;;;;;;;8.40;3.75;;;;;;;;;;5058429;28;20037;-72
2023/06/27 03:35:36;;;;;;;7.93;3.40;;;;;;;;;;5058095;28;20094;-72
2023/06/27 03:38:03;;;;;;;9.00;3.40;;;;;;;;;;5058171;28;20044;-72
2023/06/27 03:40:29;;;;;;;9.18;3.45;;;;;;;;;;5052595;28;20048;-71
2023/06/27 03:42:56;;;;;;;7.15;3.30;;;;;;;;;;5034152;28;20041;-71
2023/06/27 03:45:22;;;;;;;6.68;3.50;;;;;;;;;;5033799;28;20050;-72
2023/06/27 03:47:49;;;;;;;10.63;3.22;;;;;;;;;;5017400;28;20060;-71
2023/06/27 03:50:15;;;;;;;8.40;3.42;;;;;;;;;;5044904;28;20099;-71
2023/06/27 03:52:41;;;;;;;9.80;3.10;;;;;;;;;;5053053;28;20077;-71
2023/06/27 03:55:07;;;;;;;6.53;3.58;;;;;;;;;;5041886;28;20138;-71
2023/06/27 03:57:33;;;;;;;9.13;3.38;;;;;;;;;;5042305;28;20520;-71
2023/06/27 03:59:59;;;;;;;6.40;3.25;;;;;;;;;;5052695;28;20037;-71
2023/06/27 04:02:27;;;;;;;9.10;3.60;;;;;;;;;;5052350;28;20053;-71
2023/06/27 04:04:53;;;;;;;6.65;3.22;;;;;;;;;;5032945;28;20485;-71
2023/06/27 04:07:19;;;;;;;7.72;3.17;;;;;;;;;;5034026;28;20045;-71
2023/06/27 04:09:45;;;;;;;8.15;3.17;;;;;;;;;;5033479;28;20524;-71
2023/06/27 04:12:12;;;;;;;8.48;3.60;;;;;;;;;;5034477;28;20125;-71
2023/06/27 04:14:38;;;;;;;8.63;3.63;;;;;;;;;;5016317;28;20560;-71
2023/06/27 04:17:04;;;;;;;8.85;3.38;;;;;;;;;;5041731;28;20052;-71
2023/06/27 04:19:30;;;;;;;7.82;3.20;;;;;;;;;;5035887;28;20088;-71
2023/06/27 04:21:57;;;;;;;9.77;3.47;;;;;;;;;;5026185;28;20477;-71
2023/06/27 04:24:23;;;;;;;7.20;3.40;;;;;;;;;;5050854;28;20047;-71
2023/06/27 04:26:49;;;;;;;9.05;3.35;;;;;;;;;;5034442;28;20073;-71
2023/06/27 04:29:15;;;;;;;8.80;3.47;;;;;;;;;;5047763;28;20044;-71
2023/06/27 04:31:41;;;;;;;8.02;3.40;;;;;;;;;;5052595;28;20095;-71
2023/06/27 04:34:08;;;;;;;7.15;3.17;;;;;;;;;;5038914;28;20193;-71
2023/06/27 04:36:36;;;;;;;11.48;3.72;;;;;;;;;;5053873;28;20041;-71
2023/06/27 04:39:04;;;;;;;8.63;3.20;;;;;;;;;;5053634;28;20091;-71
2023/06/27 04:41:30;;;;;;;8.13;3.00;;;;;;;;;;5023090;28;20057;-71
2023/06/27 04:43:58;;;;;;;7.82;3.30;;;;;;;;;;5033859;28;20355;-71
2023/06/27 04:46:28;;;;;;;8.48;3.22;;;;;;;;;;5033759;28;20053;-71
2023/06/27 04:48:56;;;;;;;5.63;3.30;;;;;;;;;;5034292;28;20045;-71
2023/06/27 04:51:26;;;;;;;8.82;3.47;;;;;;;;;;5036145;28;20059;-71
2023/06/27 04:53:53;;;;;;;6.40;2.97;;;;;;;;;;5033889;28;20057;-71
2023/06/27 04:56:19;;;;;;;12.07;3.53;;;;;;;;;;5039705;28;20095;-71
2023/06/27 04:58:45;;;;;;;11.07;3.47;;;;;;;;;;5036257;28;20056;-71
2023/06/27 05:01:11;;;;;;;7.47;2.95;;;;;;;;;;5048019;28;20038;-71
2023/06/27 05:03:37;;;;;;;10.68;3.10;;;;;;;;;;5048598;28;20045;-71
2023/06/27 05:06:06;;;;;;;7.28;2.97;;;;;;;;;;5043457;28;20457;-71
2023/06/27 05:08:33;;;;;;;11.07;3.30;;;;;;;;;;5052372;28;20075;-71
2023/06/27 05:10:59;;;;;;;7.90;2.90;;;;;;;;;;5046945;28;20073;-72
2023/06/27 05:13:25;;;;;;;7.10;2.95;;;;;;;;;;5027366;28;20417;-72
2023/06/27 05:15:52;;;;;;;8.50;2.92;;;;;;;;;;5044979;28;20076;-72
2023/06/27 05:18:18;;;;;;;7.45;2.90;;;;;;;;;;5033500;28;20045;-72
2023/06/27 05:20:47;;;;;;;9.15;2.80;;;;;;;;;;5033019;28;20430;-72
2023/06/27 05:23:13;;;;;;;11.10;2.85;;;;;;;;;;5033016;28;20045;-72
2023/06/27 05:25:39;;;;;;;8.93;3.05;;;;;;;;;;5015404;28;20049;-72
2023/06/27 05:28:05;;;;;;;9.55;2.60;;;;;;;;;;5031945;28;20098;-72
2023/06/27 05:30:32;;;;;;;6.95;2.45;;;;;;;;;;5031505;28;20067;-72
2023/06/27 05:32:58;;;;;;;6.57;2.60;;;;;;;;;;5031942;28;20570;-72
2023/06/27 05:35:25;;;;;;;8.05;2.42;;;;;;;;;;5015084;28;20124;-72
2023/06/27 05:37:51;;;;;;;12.13;2.80;;;;;;;;;;5033227;28;20076;-72
2023/06/27 05:40:17;;;;;;;8.48;2.92;;;;;;;;;;5032743;28;20041;-72
2023/06/27 05:42:43;;;;;;;8.75;2.75;;;;;;;;;;5032900;28;20049;-72
2023/06/27 05:45:10;;;;;;;8.75;2.97;;;;;;;;;;5044503;28;20142;-72
2023/06/27 05:47:36;;;;;;;9.20;2.60;;;;;;;;;;5049579;28;20053;-72
2023/06/27 05:50:02;;;;;;;8.98;2.50;;;;;;;;;;5033340;28;20044;-72
2023/06/27 05:52:29;;;;;;;8.52;2.72;;;;;;;;;;5042777;28;20049;-73
2023/06/27 05:54:55;;;;;;;7.68;2.42;;;;;;;;;;5014577;28;20057;-73
2023/06/27 05:57:22;;;;;;;6.93;2.33;;;;;;;;;;5015090;28;20122;-72
2023/06/27 05:59:48;;;;;;;7.70;2.63;;;;;;;;;;5014392;28;20085;-72
2023/06/27 06:02:14;;;;;;;10.13;2.95;;;;;;;;;;5014945;28;20081;-72
2023/06/27 06:04:40;;;;;;;6.75;2.25;;;;;;;;;;5013848;28;20049;-72
2023/06/27 06:07:06;;;;;;;5.47;2.08;;;;;;;;;;5038111;28;20094;-72
2023/06/27 06:09:33;;;;;;;8.52;2.38;;;;;;;;;;5051972;28;20168;-72
2023/06/27 06:11:59;;;;;;;7.00;2.60;;;;;;;;;;5052444;28;20485;-72
2023/06/27 06:14:26;;;;;;;10.00;2.40;;;;;;;;;;5046794;28;20065;-72
2023/06/27 06:16:53;;;;;;;6.35;2.20;;;;;;;;;;5046336;28;20056;-73
2023/06/27 06:19:19;;;;;;;10.82;2.63;;;;;;;;;;5034146;28;20452;-72
2023/06/27 06:21:45;;;;;;;8.75;2.38;;;;;;;;;;5051930;28;20253;-72
2023/06/27 06:24:11;;;;;;;10.88;2.20;;;;;;;;;;5038355;28;20048;-72
2023/06/27 06:26:37;;;;;;;5.90;2.20;;;;;;;;;;5032104;28;20515;-72
2023/06/27 06:29:04;;;;;;;9.82;2.60;;;;;;;;;;5037941;28;20409;-72
2023/06/27 06:31:30;;;;;;;7.55;2.35;;;;;;;;;;5026112;28;20049;-72
2023/06/27 06:33:57;;;;;;;8.75;2.30;;;;;;;;;;5047805;28;20049;-72
2023/06/27 06:36:23;;;;;;;9.18;2.40;;;;;;;;;;5041018;28;20390;-72
2023/06/27 06:38:51;;;;;;;7.88;2.22;;;;;;;;;;5032068;28;20045;-72
2023/06/27 06:41:18;;;;;;;10.25;2.15;;;;;;;;;;5042106;28;20106;-73
2023/06/27 06:43:44;;;;;;;7.57;2.30;;;;;;;;;;5050534;28;20144;-72
2023/06/27 06:46:10;;;;;;;12.43;2.00;;;;;;;;;;5051860;28;20404;-72
2023/06/27 06:48:36;;;;;;;8.80;2.10;;;;;;;;;;5057136;28;20045;-71
2023/06/27 06:51:03;;;;;;;7.10;1.80;;;;;;;;;;5054388;28;20045;-72
2023/06/27 06:53:29;;;;;;;10.30;1.98;;;;;;;;;;5047023;28;20057;-72
2023/06/27 06:55:55;;;;;;;6.63;1.80;;;;;;;;;;5040357;28;20222;-72
2023/06/27 06:58:22;;;;;;;7.65;1.80;;;;;;;;;;5033914;28;20481;-73
2023/06/27 07:00:48;;;;;;;7.93;1.85;;;;;;;;;;5020303;28;20081;-71
2023/06/27 07:03:14;;;;;;;6.40;2.10;;;;;;;;;;5030526;28;20045;-72
2023/06/27 07:05:43;;;;;;;7.32;2.00;;;;;;;;;;5030881;28;20049;-71
2023/06/27 07:08:09;;;;;;;9.35;1.70;;;;;;;;;;5030872;28;20072;-72
2023/06/27 07:10:36;;;;;;;8.52;1.85;;;;;;;;;;5026510;28;20152;-72
2023/06/27 07:13:02;;;;;;;9.68;2.22;;;;;;;;;;5012043;28;20050;-72
2023/06/27 07:15:29;;;;;;;8.55;2.10;;;;;;;;;;5012895;28;20046;-72
2023/06/27 07:17:56;;;;;;;6.03;1.70;;;;;;;;;;4994909;28;20050;-73
2023/06/27 07:20:22;;;;;;;4.38;1.50;;;;;;;;;;5029177;28;20046;-73
2023/06/27 07:22:49;;;;;;;4.57;1.70;;;;;;;;;;5034479;28;20109;-73
2023/06/27 07:25:15;;;;;;;8.07;1.65;;;;;;;;;;5034974;28;20588;-73
2023/06/27 07:27:44;;;;;;;10.77;1.80;;;;;;;;;;5017796;28;20080;-73
2023/06/27 07:30:11;;;;;;;9.13;1.90;;;;;;;;;;5035285;28;20124;-72
2023/06/27 07:32:37;;;;;;;7.20;1.90;;;;;;;;;;5034147;28;20510;-73
2023/06/27 07:35:07;;;;;;;8.38;1.70;;;;;;;;;;5033915;28;20235;-72
2023/06/27 07:37:33;;;;;;;8.05;1.90;;;;;;;;;;5008146;28;20136;-72
2023/06/27 07:39:59;;;;;;;7.80;2.00;;;;;;;;;;5030889;28;20047;-73
2023/06/27 07:42:26;;;;;;;8.32;1.70;;;;;;;;;;5005985;28;20363;-72
2023/06/27 07:44:52;;;;;;;4.90;1.75;;;;;;;;;;5034936;28;20056;-72
2023/06/27 07:47:18;;;;;;;5.40;1.70;;;;;;;;;;5035256;28;20086;-72
2023/06/27 07:49:44;;;;;;;7.60;2.15;;;;;;;;;;5034250;28;20041;-72
2023/06/27 07:52:11;;;;;;;7.25;1.75;;;;;;;;;;5034937;28;20041;-72
2023/06/27 07:54:37;;;;;;;7.18;1.88;;;;;;;;;;5032895;28;20037;-73
2023/06/27 07:57:04;;;;;;;7.63;1.80;;;;;;;;;;5035303;28;20045;-72
2023/06/27 07:59:30;;;;;;;8.27;1.98;;;;;;;;;;5016805;28;20085;-74
2023/06/27 08:01:56;;;;;;;5.72;1.50;;;;;;;;;;5034635;28;20112;-74
2023/06/27 08:04:22;;;;;;;8.07;1.98;;;;;;;;;;5034474;28;20041;-73
2023/06/27 08:06:49;;;;;;;7.68;2.00;;;;;;;;;;5034722;28;20108;-73
2023/06/27 08:09:15;;;;;;;6.97;1.77;;;;;;;;;;5041646;28;20544;-72
2023/06/27 08:11:41;;;;;;;8.30;1.92;;;;;;;;;;5054458;28;20056;-72
2023/06/27 08:14:07;;;;;;;10.00;1.65;;;;;;;;;;5052613;28;20056;-71
2023/06/27 08:16:33;;;;;;;8.32;1.90;;;;;;;;;;5054417;28;20087;-71
2023/06/27 08:19:00;;;;;;;5.03;1.70;;;;;;;;;;5054151;28;20051;-72
2023/06/27 08:21:26;;;;;;;6.47;1.60;;;;;;;;;;5054539;28;20373;-74
2023/06/27 08:23:52;;;;;;;7.25;1.58;;;;;;;;;;5054258;28;20133;-72
2023/06/27 08:26:18;;;;;;;4.82;1.38;;;;;;;;;;5054065;28;20049;-71
2023/06/27 08:28:45;;;;;;;6.13;1.50;;;;;;;;;;5035529;28;20037;-72
2023/06/27 08:31:11;;;;;;;5.13;1.50;;;;;;;;;;5054243;28;20045;-71
2023/06/27 08:33:38;;;;;;;6.03;1.73;;;;;;;;;;5052207;28;20049;-71
2023/06/27 08:36:04;;;;;;;12.65;2.00;;;;;;;;;;5017601;28;20479;-71
2023/06/27 08:38:31;;;;;;;9.98;1.60;;;;;;;;;;5034238;28;20139;-71
2023/06/27 08:40:57;;;;;;;5.15;1.80;;;;;;;;;;5036113;28;20415;-71
2023/06/27 08:43:24;;;;;;;7.15;1.65;;;;;;;;;;5035712;28;20401;-71
2023/06/27 08:45:52;;;;;;;5.78;1.70;;;;;;;;;;5036207;28;20123;-71
2023/06/27 08:48:18;;;;;;;5.57;1.60;;;;;;;;;;5027775;28;20044;-70
2023/06/27 08:50:45;;;;;;;6.40;1.80;;;;;;;;;;5044457;28;20132;-71
2023/06/27 08:53:17;;;;;;;4.50;1.85;;;;;;;;;;5049444;28;20044;-72
2023/06/27 08:55:52;;;;;;;3.50;1.52;;;;;;;;;;5053466;28;20072;-72
2023/06/27 08:58:20;;;;;;;5.35;1.42;;;;;;;;;;5053747;28;20482;-72
2023/06/27 09:00:47;;;;;;;6.28;1.52;;;;;;;;;;5053664;28;20130;-73
2023/06/27 09:03:13;;;;;;;8.40;1.90;;;;;;;;;;5053284;28;20391;-72
2023/06/27 09:05:40;;;;;;;5.35;1.63;;;;;;;;;;5052132;28;20373;-73
2023/06/27 09:08:06;;;;;;;7.20;1.58;;;;;;;;;;5052592;28;20076;-72
2023/06/27 09:10:32;;;;;;;7.18;1.70;;;;;;;;;;5022634;28;20060;-71
2023/06/27 09:12:59;;;;;;;3.05;1.40;;;;;;;;;;5045260;28;20468;-79
2023/06/27 09:15:26;;;;;;;8.15;1.50;;;;;;;;;;5022088;28;20056;-81
2023/06/27 09:17:52;;;;;;;4.90;1.50;;;;;;;;;;5034662;28;20378;-80
2023/06/27 09:20:19;;;;;;;5.90;1.48;;;;;;;;;;5042721;28;20328;-80
2023/06/27 09:22:45;;;;;;;4.55;1.60;;;;;;;;;;5034016;28;20081;-81
2023/06/27 09:25:16;;;;;;;4.93;1.38;;;;;;;;;;5053448;28;20045;-80
2023/06/27 09:27:43;;;;;;;5.68;1.85;;;;;;;;;;5059607;28;20037;-80
2023/06/27 09:30:10;;;;;;;5.80;1.50;;;;;;;;;;5040159;28;20036;-79
2023/06/27 09:32:52;;;;;;;6.10;1.50;;;;;;;;;;5053363;28;20045;-79
2023/06/27 09:35:19;;;;;;;3.65;1.40;;;;;;;;;;5051442;28;20044;-80
2023/06/27 09:37:46;;;;;;;9.50;1.65;;;;;;;;;;5051678;28;20421;-79
2023/06/27 09:40:18;;;;;;;5.15;1.48;;;;;;;;;;5050176;28;20444;-79
2023/06/27 09:42:51;;;;;;;8.52;1.60;;;;;;;;;;5034549;28;20354;-79
2023/06/27 09:45:17;;;;;;;4.22;1.70;;;;;;;;;;5049477;28;20041;-79
2023/06/27 09:47:44;;;;;;;5.68;1.52;;;;;;;;;;5035134;28;20045;-79
2023/06/27 09:50:10;;;;;;;5.47;1.67;;;;;;;;;;5051078;28;20398;-78
2023/06/27 09:52:36;;;;;;;5.13;1.73;;;;;;;;;;5052228;28;20126;-78
2023/06/27 09:55:03;;;;;;;3.75;1.50;;;;;;;;;;5052385;28;20053;-79
2023/06/27 09:57:30;;;;;;;5.13;1.50;;;;;;;;;;5035477;28;20053;-79
2023/06/27 10:00:00;;;;;;;6.25;1.70;;;;;;;;;;5034816;28;20060;-83
2023/06/27 10:02:29;;;;;;;5.75;1.38;;;;;;;;;;5054130;28;20066;-82
2023/06/27 10:04:55;;;;;;;7.57;1.52;;;;;;;;;;5052177;28;20049;-83
2023/06/27 10:07:22;;;;;;;8.80;1.58;;;;;;;;;;5037418;28;20488;-84
2023/06/27 10:09:48;;;;;;;4.40;1.63;;;;;;;;;;5035061;28;20523;-81
2023/06/27 10:12:15;;;;;;;4.97;1.60;;;;;;;;;;5040923;28;20120;-82
2023/06/27 10:14:43;;;;;;;4.05;1.52;;;;;;;;;;5035911;28;20114;-81
2023/06/27 10:17:16;;;;;;;6.90;1.77;;;;;;;;;;5034175;28;20044;-82
2023/06/27 10:19:43;;;;;;;8.70;1.75;;;;;;;;;;5013372;28;20106;-80
2023/06/27 10:22:11;;;;;;;4.88;1.48;;;;;;;;;;5045944;28;20045;-79
2023/06/27 10:24:40;;;;;;;7.63;1.60;;;;;;;;;;5032022;28;20136;-80
2023/06/27 10:27:13;;;;;;;5.13;1.80;;;;;;;;;;5039835;28;20045;-77
2023/06/27 10:29:42;;;;;;;5.70;1.45;;;;;;;;;;5040613;28;20053;-77
2023/06/27 10:32:09;;;;;;;4.18;1.45;;;;;;;;;;5033543;28;20041;-80
2023/06/27 10:34:39;;;;;;;5.40;1.45;;;;;;;;;;5028098;28;20396;-80
2023/06/27 10:37:06;;;;;;;7.25;1.45;;;;;;;;;;5013734;28;20056;-80
2023/06/27 10:39:33;;;;;;;7.20;1.67;;;;;;;;;;5029957;28;20070;-81
2023/06/27 10:42:06;;;;;;;8.10;1.60;;;;;;;;;;5012582;28;20053;-81
2023/06/27 10:44:35;;;;;;;4.47;1.58;;;;;;;;;;5029990;28;20139;-81
2023/06/27 10:47:14;;;;;;;3.97;1.50;;;;;;;;;;5013052;28;20077;-74
2023/06/27 10:49:40;;;;;;;5.13;1.70;;;;;;;;;;5044171;28;20052;-75
2023/06/27 10:52:10;;;;;;;5.75;1.80;;;;;;;;;;5053996;28;20052;-76
2023/06/27 10:54:42;;;;;;;5.95;1.50;;;;;;;;;;5055592;28;20123;-76
2023/06/27 10:57:08;;;;;;;3.90;1.50;;;;;;;;;;5056090;28;20167;-75
2023/06/27 10:59:35;;;;;;;4.68;1.60;;;;;;;;;;5054209;28;20485;-76
2023/06/27 11:02:02;;;;;;;5.97;1.70;;;;;;;;;;5054425;28;20564;-75
2023/06/27 11:04:44;;;;;;;5.65;1.77;;;;;;;;;;5035961;28;20099;-77
2023/06/27 11:07:17;;;;;;;4.30;1.30;;;;;;;;;;5055764;28;20136;-77
2023/06/27 11:09:54;;;;;;;4.75;1.50;;;;;;;;;;5055222;28;20057;-77
2023/06/27 11:12:21;;;;;;;4.68;1.58;;;;;;;;;;5054548;28;20051;-77
2023/06/27 11:14:48;;;;;;;3.90;1.40;;;;;;;;;;5037487;28;20095;-76
2023/06/27 11:17:18;;;;;;;5.43;1.52;;;;;;;;;;5055496;28;20393;-77
2023/06/27 11:19:44;;;;;;;6.03;1.67;;;;;;;;;;5053594;28;20128;-77
2023/06/27 11:22:11;;;;;;;7.65;1.70;;;;;;;;;;5054030;28;20044;-77
2023/06/27 11:24:39;;;;;;;3.83;1.30;;;;;;;;;;5054135;28;20040;-77
2023/06/27 11:27:07;;;;;;;5.35;1.55;;;;;;;;;;5036781;28;20428;-77
2023/06/27 11:29:36;;;;;;;4.85;1.63;;;;;;;;;;5036398;28;20049;-77
2023/06/27 11:32:02;;;;;;;5.13;1.50;;;;;;;;;;5054047;28;20041;-78
2023/06/27 11:34:29;;;;;;;6.03;1.75;;;;;;;;;;5055275;28;20340;-78
2023/06/27 11:36:56;;;;;;;4.55;1.40;;;;;;;;;;5054723;28;20048;-77
2023/06/27 11:39:22;;;;;;;7.10;1.40;;;;;;;;;;5054789;28;20048;-77
2023/06/27 11:41:48;;;;;;;3.83;1.40;;;;;;;;;;5036879;28;20049;-77
2023/06/27 11:44:16;;;;;;;4.25;1.45;;;;;;;;;;5054754;28;20045;-78
2023/06/27 11:46:52;;;;;;;5.97;1.50;;;;;;;;;;5050935;28;20049;-78
2023/06/27 11:49:26;;;;;;;5.57;1.60;;;;;;;;;;5039393;28;20049;-78
2023/06/27 11:51:52;;;;;;;7.15;1.73;;;;;;;;;;5048053;28;20160;-78
2023/06/27 11:54:19;;;;;;;5.80;1.60;;;;;;;;;;5031114;28;20493;-78
2023/06/27 11:56:45;;;;;;;5.85;1.58;;;;;;;;;;5036954;28;20045;-78
2023/06/27 11:59:12;;;;;;;8.73;1.95;;;;;;;;;;5054754;28;20171;-78
2023/06/27 12:01:42;;;;;;;8.27;1.77;;;;;;;;;;5049415;28;20378;-78
2023/06/27 12:04:17;;;;;;;4.90;1.55;;;;;;;;;;5034440;28;20547;-78
2023/06/27 12:06:45;;;;;;;4.43;1.70;;;;;;;;;;5052894;28;20071;-77
2023/06/27 12:09:24;;;;;;;4.60;1.50;;;;;;;;;;5053646;28;20063;-75
2023/06/27 12:11:52;;;;;;;5.60;1.60;;;;;;;;;;5054531;28;20041;-78
2023/06/27 12:14:22;;;;;;;4.95;1.55;;;;;;;;;;5038405;28;20045;-77
2023/06/27 12:16:48;;;;;;;6.22;1.60;;;;;;;;;;5057708;28;20049;-75
2023/06/27 12:19:15;;;;;;;4.40;1.70;;;;;;;;;;5036515;28;20053;-76
2023/06/27 12:21:42;;;;;;;5.43;1.60;;;;;;;;;;5054394;28;20053;-76
2023/06/27 12:24:09;;;;;;;5.63;1.90;;;;;;;;;;5022756;28;20081;-76
2023/06/27 12:26:35;;;;;;;6.53;1.80;;;;;;;;;;5034044;28;20075;-76
2023/06/27 12:29:02;;;;;;;5.20;1.70;;;;;;;;;;5034126;28;20557;-76
2023/06/27 12:31:28;;;;;;;4.63;1.60;;;;;;;;;;5034551;28;20114;-76
2023/06/27 12:33:55;;;;;;;9.90;1.70;;;;;;;;;;5034016;28;20473;-77
2023/06/27 12:36:22;;;;;;;5.25;1.77;;;;;;;;;;5033864;28;20041;-75
2023/06/27 12:38:49;;;;;;;6.88;1.63;;;;;;;;;;5044993;28;20053;-74
2023/06/27 12:41:17;;;;;;;5.05;1.65;;;;;;;;;;5053636;28;20045;-75
2023/06/27 12:43:44;;;;;;;4.32;1.50;;;;;;;;;;5035829;28;20132;-75
2023/06/27 12:46:10;;;;;;;5.03;1.65;;;;;;;;;;5052601;28;20418;-74
2023/06/27 12:48:36;;;;;;;4.90;1.60;;;;;;;;;;5051958;28;20064;-74
2023/06/27 12:51:02;;;;;;;7.28;1.70;;;;;;;;;;5046835;28;20033;-75
2023/06/27 12:53:29;;;;;;;6.07;1.73;;;;;;;;;;5022800;28;20143;-76
2023/06/27 12:55:55;;;;;;;6.13;1.70;;;;;;;;;;5051535;28;20146;-74
2023/06/27 12:58:21;;;;;;;6.45;1.60;;;;;;;;;;5042811;28;20512;-76
2023/06/27 13:00:47;;;;;;;4.93;1.48;;;;;;;;;;5051923;28;20045;-75
2023/06/27 13:03:13;;;;;;;5.85;1.60;;;;;;;;;;5053180;28;20131;-75
2023/06/27 13:05:39;;;;;;;6.90;1.65;;;;;;;;;;5052927;28;20044;-76
2023/06/27 13:08:06;;;;;;;5.57;1.77;;;;;;;;;;5053281;28;20045;-76
2023/06/27 13:10:32;;;;;;;5.45;1.80;;;;;;;;;;5052934;28;20127;-75
2023/06/27 13:13:01;;;;;;;8.32;1.58;;;;;;;;;;5034970;28;20046;-75
2023/06/27 13:15:27;;;;;;;4.10;1.33;;;;;;;;;;5053106;28;20056;-78
2023/06/27 13:17:53;;;;;;;5.03;1.55;;;;;;;;;;5044802;28;20041;-78
2023/06/27 13:20:20;;;;;;;7.15;1.80;;;;;;;;;;5032836;28;20045;-76
2023/06/27 13:22:48;;;;;;;5.95;1.52;;;;;;;;;;5051227;28;20083;-76
2023/06/27 13:25:15;;;;;;;7.53;1.80;;;;;;;;;;5033083;28;20046;-75
2023/06/27 13:27:41;;;;;;;3.90;1.40;;;;;;;;;;5033495;28;20405;-76
2023/06/27 13:30:09;;;;;;;6.18;1.73;;;;;;;;;;5013909;28;20045;-76
2023/06/27 13:32:35;;;;;;;5.03;1.33;;;;;;;;;;5031323;28;20048;-76
2023/06/27 13:35:01;;;;;;;3.90;1.42;;;;;;;;;;5032249;28;20156;-77
2023/06/27 13:37:28;;;;;;;5.45;1.50;;;;;;;;;;5031692;28;20128;-78
2023/06/27 13:39:54;;;;;;;6.60;1.60;;;;;;;;;;5019737;28;20048;-78
2023/06/27 13:42:20;;;;;;;3.65;1.40;;;;;;;;;;5041025;28;20052;-78
2023/06/27 13:44:46;;;;;;;5.43;1.70;;;;;;;;;;5031537;28;20420;-78
2023/06/27 13:47:13;;;;;;;4.40;1.60;;;;;;;;;;5034543;28;20045;-79
2023/06/27 13:49:39;;;;;;;3.85;1.60;;;;;;;;;;5047686;28;20045;-76
2023/06/27 13:52:06;;;;;;;4.13;1.50;;;;;;;;;;5032501;28;20124;-75
2023/06/27 13:54:32;;;;;;;5.43;1.48;;;;;;;;;;5033404;28;20441;-73
2023/06/27 13:56:59;;;;;;;5.50;1.42;;;;;;;;;;5049162;28;20354;-72
2023/06/27 13:59:28;;;;;;;4.07;1.23;;;;;;;;;;5051949;28;20048;-72
2023/06/27 14:01:54;;;;;;;7.13;1.90;;;;;;;;;;5050787;28;20048;-73
2023/06/27 14:04:20;;;;;;;5.45;1.67;;;;;;;;;;5034225;28;20090;-73
2023/06/27 14:06:51;;;;;;;4.13;1.50;;;;;;;;;;5052265;28;20082;-74
2023/06/27 14:09:19;;;;;;;6.03;1.42;;;;;;;;;;5051806;28;20565;-73
2023/06/27 14:11:45;;;;;;;7.00;1.75;;;;;;;;;;5052461;28;20080;-73
2023/06/27 14:14:12;;;;;;;3.88;1.40;;;;;;;;;;5052142;28;20049;-74
2023/06/27 14:16:39;;;;;;;4.13;1.20;;;;;;;;;;5033860;28;20041;-73
2023/06/27 14:19:06;;;;;;;3.90;1.20;;;;;;;;;;5051882;28;20059;-73
2023/06/27 14:21:36;;;;;;;5.05;1.60;;;;;;;;;;5056048;28;20044;-72
2023/06/27 14:24:02;;;;;;;4.47;1.50;;;;;;;;;;5056523;28;20045;-73
2023/06/27 14:26:29;;;;;;;5.03;1.42;;;;;;;;;;5033500;28;20459;-76
2023/06/27 14:28:55;;;;;;;4.05;1.30;;;;;;;;;;5049878;28;20157;-73
2023/06/27 14:31:21;;;;;;;5.75;1.40;;;;;;;;;;5049771;28;20140;-73
2023/06/27 14:33:47;;;;;;;4.05;1.73;;;;;;;;;;5031969;28;20049;-72
2023/06/27 14:36:13;;;;;;;2.83;1.40;;;;;;;;;;5050472;28;20520;-72
2023/06/27 14:38:39;;;;;;;5.78;1.48;;;;;;;;;;5033471;28;20084;-72
2023/06/27 14:41:05;;;;;;;4.38;1.30;;;;;;;;;;5051654;28;20500;-73
2023/06/27 14:43:32;;;;;;;4.72;1.63;;;;;;;;;;5050434;28;20170;-72